sensor_id;sensor_type;location;lat;lon;timestamp;temperature;humidity
63017;DHT22;50274;45.640;11.756;2022-09-19T00:01:14;17.20;62.20
63017;DHT22;50274;45.640;11.756;2022-09-19T00:03:43;17.20;62.20
63017;DHT22;50274;45.640;11.756;2022-09-19T00:06:10;17.10;62.30
63017;DHT22;50274;45.640;11.756;2022-09-19T00:08:41;17.10;62.30
63017;DHT22;50274;45.640;11.756;2022-09-19T00:11:09;17.10;62.30
63017;DHT22;50274;45.640;11.756;2022-09-19T00:13:36;17.10;62.30
63017;DHT22;50274;45.640;11.756;2022-09-19T00:16:03;17.00;62.40
63017;DHT22;50274;45.640;11.756;2022-09-19T00:18:30;17.00;62.60
63017;DHT22;50274;45.640;11.756;2022-09-19T00:20:57;16.90;62.80
63017;DHT22;50274;45.640;11.756;2022-09-19T00:23:22;16.90;62.90
63017;DHT22;50274;45.640;11.756;2022-09-19T00:26:09;16.80;62.90
63017;DHT22;50274;45.640;11.756;2022-09-19T00:28:36;16.90;63.00
63017;DHT22;50274;45.640;11.756;2022-09-19T00:31:03;16.80;63.00
63017;DHT22;50274;45.640;11.756;2022-09-19T00:33:32;16.80;62.90
63017;DHT22;50274;45.640;11.756;2022-09-19T00:36:00;16.80;62.90
63017;DHT22;50274;45.640;11.756;2022-09-19T00:38:30;16.80;63.00
63017;DHT22;50274;45.640;11.756;2022-09-19T00:40:57;16.80;63.00
63017;DHT22;50274;45.640;11.756;2022-09-19T00:43:41;16.70;63.00
63017;DHT22;50274;45.640;11.756;2022-09-19T00:46:07;16.60;63.10
63017;DHT22;50274;45.640;11.756;2022-09-19T00:48:33;16.60;63.20
63017;DHT22;50274;45.640;11.756;2022-09-19T00:51:00;16.60;63.30
63017;DHT22;50274;45.640;11.756;2022-09-19T00:53:27;16.60;63.40
63017;DHT22;50274;45.640;11.756;2022-09-19T00:55:56;16.60;63.40
63017;DHT22;50274;45.640;11.756;2022-09-19T00:58:29;16.60;63.50
63017;DHT22;50274;45.640;11.756;2022-09-19T01:00:56;16.50;63.50
63017;DHT22;50274;45.640;11.756;2022-09-19T01:03:24;16.50;63.50
63017;DHT22;50274;45.640;11.756;2022-09-19T01:11:52;16.40;63.80
63017;DHT22;50274;45.640;11.756;2022-09-19T01:14:49;16.40;63.70
63017;DHT22;50274;45.640;11.756;2022-09-19T01:18:06;16.30;63.80
63017;DHT22;50274;45.640;11.756;2022-09-19T01:23:22;16.20;63.90
63017;DHT22;50274;45.640;11.756;2022-09-19T01:31:27;16.10;64.00
63017;DHT22;50274;45.640;11.756;2022-09-19T01:34:22;16.10;64.00
63017;DHT22;50274;45.640;11.756;2022-09-19T01:37:06;16.00;64.10
63017;DHT22;50274;45.640;11.756;2022-09-19T01:39:37;16.00;64.20
63017;DHT22;50274;45.640;11.756;2022-09-19T01:42:04;16.00;64.30
63017;DHT22;50274;45.640;11.756;2022-09-19T01:44:31;16.00;64.20
63017;DHT22;50274;45.640;11.756;2022-09-19T02:00:32;15.90;64.10
63017;DHT22;50274;45.640;11.756;2022-09-19T02:03:13;15.80;64.30
63017;DHT22;50274;45.640;11.756;2022-09-19T02:11:05;15.80;64.30
63017;DHT22;50274;45.640;11.756;2022-09-19T02:13:36;15.80;64.30
63017;DHT22;50274;45.640;11.756;2022-09-19T02:16:16;15.70;64.30
63017;DHT22;50274;45.640;11.756;2022-09-19T02:18:59;15.70;64.40
63017;DHT22;50274;45.640;11.756;2022-09-19T02:21:31;15.70;64.40
63017;DHT22;50274;45.640;11.756;2022-09-19T02:24:00;15.70;64.50
63017;DHT22;50274;45.640;11.756;2022-09-19T02:26:32;15.60;64.50
63017;DHT22;50274;45.640;11.756;2022-09-19T02:29:00;15.60;64.60
63017;DHT22;50274;45.640;11.756;2022-09-19T02:31:27;15.60;64.70
63017;DHT22;50274;45.640;11.756;2022-09-19T02:33:58;15.60;64.60
63017;DHT22;50274;45.640;11.756;2022-09-19T02:36:54;15.60;64.50
63017;DHT22;50274;45.640;11.756;2022-09-19T02:39:42;15.70;64.40
63017;DHT22;50274;45.640;11.756;2022-09-19T02:47:41;15.50;64.50
63017;DHT22;50274;45.640;11.756;2022-09-19T02:50:15;15.50;64.50
63017;DHT22;50274;45.640;11.756;2022-09-19T02:52:43;15.50;64.40
63017;DHT22;50274;45.640;11.756;2022-09-19T02:55:19;15.50;64.50
63017;DHT22;50274;45.640;11.756;2022-09-19T02:57:52;15.40;64.50
63017;DHT22;50274;45.640;11.756;2022-09-19T03:00:19;15.40;64.50
63017;DHT22;50274;45.640;11.756;2022-09-19T03:03:06;15.40;64.60
63017;DHT22;50274;45.640;11.756;2022-09-19T03:05:54;15.40;64.60
63017;DHT22;50274;45.640;11.756;2022-09-19T03:08:22;15.40;64.60
63017;DHT22;50274;45.640;11.756;2022-09-19T03:10:52;15.40;64.60
63017;DHT22;50274;45.640;11.756;2022-09-19T03:13:21;15.40;64.60
63017;DHT22;50274;45.640;11.756;2022-09-19T03:16:32;15.40;64.60
63017;DHT22;50274;45.640;11.756;2022-09-19T03:18:53;15.30;64.70
63017;DHT22;50274;45.640;11.756;2022-09-19T03:21:25;15.30;64.70
63017;DHT22;50274;45.640;11.756;2022-09-19T03:23:52;15.30;64.70
63017;DHT22;50274;45.640;11.756;2022-09-19T03:26:28;15.30;64.70
63017;DHT22;50274;45.640;11.756;2022-09-19T03:28:57;15.30;64.70
63017;DHT22;50274;45.640;11.756;2022-09-19T03:31:24;15.30;64.70
63017;DHT22;50274;45.640;11.756;2022-09-19T03:33:52;15.30;64.70
63017;DHT22;50274;45.640;11.756;2022-09-19T03:36:18;15.30;64.70
63017;DHT22;50274;45.640;11.756;2022-09-19T03:38:45;15.30;64.70
63017;DHT22;50274;45.640;11.756;2022-09-19T03:41:15;15.30;64.70
63017;DHT22;50274;45.640;11.756;2022-09-19T03:43:41;15.30;64.60
63017;DHT22;50274;45.640;11.756;2022-09-19T03:46:15;15.30;64.60
63017;DHT22;50274;45.640;11.756;2022-09-19T03:48:41;15.30;64.60
63017;DHT22;50274;45.640;11.756;2022-09-19T03:51:14;15.30;64.60
63017;DHT22;50274;45.640;11.756;2022-09-19T03:53:40;15.30;64.50
63017;DHT22;50274;45.640;11.756;2022-09-19T03:56:09;15.30;64.50
63017;DHT22;50274;45.640;11.756;2022-09-19T03:58:36;15.20;64.60
63017;DHT22;50274;45.640;11.756;2022-09-19T04:01:03;15.20;64.70
63017;DHT22;50274;45.640;11.756;2022-09-19T04:03:30;15.20;64.80
63017;DHT22;50274;45.640;11.756;2022-09-19T04:05:55;15.20;64.80
63017;DHT22;50274;45.640;11.756;2022-09-19T04:08:21;15.10;64.70
63017;DHT22;50274;45.640;11.756;2022-09-19T04:10:47;15.20;64.70
63017;DHT22;50274;45.640;11.756;2022-09-19T04:13:13;15.20;64.70
63017;DHT22;50274;45.640;11.756;2022-09-19T04:15:39;15.20;64.60
63017;DHT22;50274;45.640;11.756;2022-09-19T04:18:06;15.10;64.60
63017;DHT22;50274;45.640;11.756;2022-09-19T04:20:32;15.10;64.60
63017;DHT22;50274;45.640;11.756;2022-09-19T04:22:59;15.10;64.70
63017;DHT22;50274;45.640;11.756;2022-09-19T04:25:30;15.10;64.70
63017;DHT22;50274;45.640;11.756;2022-09-19T04:27:59;15.00;64.70
63017;DHT22;50274;45.640;11.756;2022-09-19T04:30:30;15.10;64.70
63017;DHT22;50274;45.640;11.756;2022-09-19T04:32:56;15.00;64.70
63017;DHT22;50274;45.640;11.756;2022-09-19T04:35:24;15.00;64.70
63017;DHT22;50274;45.640;11.756;2022-09-19T04:37:50;15.00;64.60
63017;DHT22;50274;45.640;11.756;2022-09-19T04:40:16;15.00;64.70
63017;DHT22;50274;45.640;11.756;2022-09-19T04:42:42;15.00;64.70
63017;DHT22;50274;45.640;11.756;2022-09-19T04:45:09;14.90;64.80
63017;DHT22;50274;45.640;11.756;2022-09-19T04:47:35;14.80;65.00
63017;DHT22;50274;45.640;11.756;2022-09-19T04:50:04;14.80;65.10
63017;DHT22;50274;45.640;11.756;2022-09-19T04:52:33;14.70;65.20
63017;DHT22;50274;45.640;11.756;2022-09-19T04:55:00;14.70;65.30
63017;DHT22;50274;45.640;11.756;2022-09-19T04:57:26;14.70;65.40
63017;DHT22;50274;45.640;11.756;2022-09-19T04:59:53;14.80;65.40
63017;DHT22;50274;45.640;11.756;2022-09-19T05:02:21;14.80;65.30
63017;DHT22;50274;45.640;11.756;2022-09-19T05:04:47;14.80;65.30
63017;DHT22;50274;45.640;11.756;2022-09-19T05:07:13;14.80;65.30
63017;DHT22;50274;45.640;11.756;2022-09-19T05:09:40;14.70;65.40
63017;DHT22;50274;45.640;11.756;2022-09-19T05:12:09;14.70;65.40
63017;DHT22;50274;45.640;11.756;2022-09-19T05:14:35;14.70;65.50
63017;DHT22;50274;45.640;11.756;2022-09-19T05:17:01;14.70;65.40
63017;DHT22;50274;45.640;11.756;2022-09-19T05:19:27;14.70;65.50
63017;DHT22;50274;45.640;11.756;2022-09-19T05:21:53;14.60;65.50
63017;DHT22;50274;45.640;11.756;2022-09-19T05:24:19;14.60;65.60
63017;DHT22;50274;45.640;11.756;2022-09-19T05:26:46;14.60;65.70
63017;DHT22;50274;45.640;11.756;2022-09-19T05:29:12;14.60;65.70
63017;DHT22;50274;45.640;11.756;2022-09-19T05:31:42;14.50;65.80
63017;DHT22;50274;45.640;11.756;2022-09-19T05:34:10;14.50;65.90
63017;DHT22;50274;45.640;11.756;2022-09-19T05:36:39;14.60;66.00
63017;DHT22;50274;45.640;11.756;2022-09-19T05:39:05;14.50;65.90
63017;DHT22;50274;45.640;11.756;2022-09-19T05:41:32;14.60;66.00
63017;DHT22;50274;45.640;11.756;2022-09-19T05:43:58;14.60;66.00
63017;DHT22;50274;45.640;11.756;2022-09-19T05:46:24;14.60;66.00
63017;DHT22;50274;45.640;11.756;2022-09-19T05:48:50;14.70;66.10
63017;DHT22;50274;45.640;11.756;2022-09-19T05:51:16;14.70;66.10
63017;DHT22;50274;45.640;11.756;2022-09-19T05:53:42;14.70;66.20
63017;DHT22;50274;45.640;11.756;2022-09-19T05:56:21;14.70;66.30
63017;DHT22;50274;45.640;11.756;2022-09-19T05:58:47;14.70;66.30
63017;DHT22;50274;45.640;11.756;2022-09-19T06:01:14;14.80;66.30
63017;DHT22;50274;45.640;11.756;2022-09-19T06:03:40;14.80;66.40
63017;DHT22;50274;45.640;11.756;2022-09-19T06:06:10;14.90;66.40
63017;DHT22;50274;45.640;11.756;2022-09-19T06:08:41;15.00;66.30
63017;DHT22;50274;45.640;11.756;2022-09-19T06:11:10;15.00;66.30
63017;DHT22;50274;45.640;11.756;2022-09-19T06:13:36;15.10;66.20
63017;DHT22;50274;45.640;11.756;2022-09-19T06:16:20;15.10;66.10
63017;DHT22;50274;45.640;11.756;2022-09-19T06:18:46;15.20;66.00
63017;DHT22;50274;45.640;11.756;2022-09-19T06:21:13;15.30;65.90
63017;DHT22;50274;45.640;11.756;2022-09-19T06:23:40;15.40;65.80
63017;DHT22;50274;45.640;11.756;2022-09-19T06:26:06;15.50;65.70
63017;DHT22;50274;45.640;11.756;2022-09-19T06:28:32;15.60;65.60
63017;DHT22;50274;45.640;11.756;2022-09-19T06:31:02;15.70;65.50
63017;DHT22;50274;45.640;11.756;2022-09-19T06:33:32;15.70;65.40
63017;DHT22;50274;45.640;11.756;2022-09-19T06:35:58;15.80;65.40
63017;DHT22;50274;45.640;11.756;2022-09-19T06:38:26;15.90;65.40
63017;DHT22;50274;45.640;11.756;2022-09-19T06:40:52;16.00;65.40
63017;DHT22;50274;45.640;11.756;2022-09-19T06:43:18;16.00;65.30
63017;DHT22;50274;45.640;11.756;2022-09-19T06:45:44;16.10;65.20
63017;DHT22;50274;45.640;11.756;2022-09-19T06:48:10;16.20;65.10
63017;DHT22;50274;45.640;11.756;2022-09-19T06:50:36;16.30;65.10
63017;DHT22;50274;45.640;11.756;2022-09-19T06:53:02;16.40;65.00
63017;DHT22;50274;45.640;11.756;2022-09-19T06:55:28;16.50;64.90
63017;DHT22;50274;45.640;11.756;2022-09-19T06:58:00;16.60;64.70
63017;DHT22;50274;45.640;11.756;2022-09-19T07:00:27;16.60;64.50
63017;DHT22;50274;45.640;11.756;2022-09-19T07:03:02;16.70;64.40
63017;DHT22;50274;45.640;11.756;2022-09-19T07:05:33;16.80;64.40
63017;DHT22;50274;45.640;11.756;2022-09-19T07:07:59;17.00;64.40
63017;DHT22;50274;45.640;11.756;2022-09-19T07:10:25;17.10;64.20
63017;DHT22;50274;45.640;11.756;2022-09-19T07:12:53;17.20;64.10
63017;DHT22;50274;45.640;11.756;2022-09-19T07:15:19;17.30;64.00
63017;DHT22;50274;45.640;11.756;2022-09-19T07:17:45;17.40;63.90
63017;DHT22;50274;45.640;11.756;2022-09-19T07:20:11;17.50;63.80
63017;DHT22;50274;45.640;11.756;2022-09-19T07:22:37;17.60;63.70
63017;DHT22;50274;45.640;11.756;2022-09-19T07:25:03;17.70;63.40
63017;DHT22;50274;45.640;11.756;2022-09-19T07:27:30;17.80;63.30
63017;DHT22;50274;45.640;11.756;2022-09-19T07:29:56;17.90;63.40
63017;DHT22;50274;45.640;11.756;2022-09-19T07:32:21;18.00;63.20
63017;DHT22;50274;45.640;11.756;2022-09-19T07:34:47;18.00;63.00
63017;DHT22;50274;45.640;11.756;2022-09-19T07:37:13;18.10;62.60
63017;DHT22;50274;45.640;11.756;2022-09-19T07:39:39;18.20;62.30
63017;DHT22;50274;45.640;11.756;2022-09-19T07:42:05;18.30;61.60
63017;DHT22;50274;45.640;11.756;2022-09-19T07:44:31;18.40;60.90
63017;DHT22;50274;45.640;11.756;2022-09-19T07:46:56;18.50;60.10
63017;DHT22;50274;45.640;11.756;2022-09-19T07:49:41;18.60;59.20
63017;DHT22;50274;45.640;11.756;2022-09-19T07:52:06;18.70;58.20
63017;DHT22;50274;45.640;11.756;2022-09-19T07:54:32;18.80;58.30
63017;DHT22;50274;45.640;11.756;2022-09-19T07:56:58;19.00;57.80
63017;DHT22;50274;45.640;11.756;2022-09-19T07:59:25;19.10;57.50
63017;DHT22;50274;45.640;11.756;2022-09-19T08:01:51;19.20;57.40
63017;DHT22;50274;45.640;11.756;2022-09-19T08:04:17;19.30;57.00
63017;DHT22;50274;45.640;11.756;2022-09-19T08:06:43;19.30;56.70
63017;DHT22;50274;45.640;11.756;2022-09-19T08:09:10;19.40;56.50
63017;DHT22;50274;45.640;11.756;2022-09-19T08:11:36;19.50;56.30
63017;DHT22;50274;45.640;11.756;2022-09-19T08:14:02;19.60;55.70
63017;DHT22;50274;45.640;11.756;2022-09-19T08:16:28;19.60;55.90
63017;DHT22;50274;45.640;11.756;2022-09-19T08:18:54;19.60;56.10
63017;DHT22;50274;45.640;11.756;2022-09-19T08:21:19;19.70;56.00
63017;DHT22;50274;45.640;11.756;2022-09-19T08:23:46;19.80;56.00
63017;DHT22;50274;45.640;11.756;2022-09-19T08:26:12;19.90;55.20
63017;DHT22;50274;45.640;11.756;2022-09-19T08:28:38;20.00;54.60
63017;DHT22;50274;45.640;11.756;2022-09-19T08:31:04;20.10;54.50
63017;DHT22;50274;45.640;11.756;2022-09-19T08:33:31;20.10;54.60
63017;DHT22;50274;45.640;11.756;2022-09-19T08:35:59;20.20;54.60
63017;DHT22;50274;45.640;11.756;2022-09-19T08:38:26;20.40;54.50
63017;DHT22;50274;45.640;11.756;2022-09-19T08:41:24;20.40;54.10
63017;DHT22;50274;45.640;11.756;2022-09-19T08:47:12;20.60;54.50
63017;DHT22;50274;45.640;11.756;2022-09-19T08:50:18;20.70;54.40
63017;DHT22;50274;45.640;11.756;2022-09-19T08:52:43;20.80;53.70
63017;DHT22;50274;45.640;11.756;2022-09-19T08:55:31;20.80;53.40
63017;DHT22;50274;45.640;11.756;2022-09-19T08:58:06;21.00;53.50
63017;DHT22;50274;45.640;11.756;2022-09-19T09:00:38;21.00;53.40
63017;DHT22;50274;45.640;11.756;2022-09-19T09:03:07;21.10;52.70
63017;DHT22;50274;45.640;11.756;2022-09-19T09:22:32;21.70;51.10
63017;DHT22;50274;45.640;11.756;2022-09-19T09:25:21;21.90;51.30
63017;DHT22;50274;45.640;11.756;2022-09-19T09:30:18;22.10;51.00
63017;DHT22;50274;45.640;11.756;2022-09-19T09:32:51;22.30;50.60
63017;DHT22;50274;45.640;11.756;2022-09-19T09:35:37;22.30;50.50
63017;DHT22;50274;45.640;11.756;2022-09-19T09:41:06;22.50;50.50
63017;DHT22;50274;45.640;11.756;2022-09-19T09:49:15;22.70;49.60
63017;DHT22;50274;45.640;11.756;2022-09-19T10:00:04;23.30;48.30
63017;DHT22;50274;45.640;11.756;2022-09-19T10:05:58;23.40;48.10
63017;DHT22;50274;45.640;11.756;2022-09-19T10:08:36;23.50;47.70
63017;DHT22;50274;45.640;11.756;2022-09-19T10:11:28;23.80;47.70
63017;DHT22;50274;45.640;11.756;2022-09-19T10:13:58;24.00;47.40
63017;DHT22;50274;45.640;11.756;2022-09-19T10:16:28;24.10;46.90
63017;DHT22;50274;45.640;11.756;2022-09-19T10:19:02;24.30;45.80
63017;DHT22;50274;45.640;11.756;2022-09-19T10:21:32;24.40;45.80
63017;DHT22;50274;45.640;11.756;2022-09-19T10:23:58;24.60;44.90
63017;DHT22;50274;45.640;11.756;2022-09-19T10:26:28;24.80;44.70
63017;DHT22;50274;45.640;11.756;2022-09-19T10:28:56;25.00;44.20
63017;DHT22;50274;45.640;11.756;2022-09-19T10:34:01;25.40;42.90
63017;DHT22;50274;45.640;11.756;2022-09-19T10:36:31;25.50;41.20
63017;DHT22;50274;45.640;11.756;2022-09-19T10:39:13;25.70;41.20
63017;DHT22;50274;45.640;11.756;2022-09-19T10:41:41;25.80;41.10
63017;DHT22;50274;45.640;11.756;2022-09-19T10:44:28;26.00;40.70
63017;DHT22;50274;45.640;11.756;2022-09-19T10:47:01;26.20;41.30
63017;DHT22;50274;45.640;11.756;2022-09-19T10:49:36;26.50;41.30
63017;DHT22;50274;45.640;11.756;2022-09-19T10:52:05;26.70;40.70
63017;DHT22;50274;45.640;11.756;2022-09-19T10:54:35;26.80;40.00
63017;DHT22;50274;45.640;11.756;2022-09-19T10:59:50;27.10;37.90
63017;DHT22;50274;45.640;11.756;2022-09-19T11:02:26;27.30;38.10
63017;DHT22;50274;45.640;11.756;2022-09-19T11:05:01;27.50;38.00
63017;DHT22;50274;45.640;11.756;2022-09-19T11:07:32;27.50;36.60
63017;DHT22;50274;45.640;11.756;2022-09-19T11:10:36;27.60;36.80
63017;DHT22;50274;45.640;11.756;2022-09-19T11:13:16;27.60;36.40
63017;DHT22;50274;45.640;11.756;2022-09-19T11:19:09;27.60;35.10
63017;DHT22;50274;45.640;11.756;2022-09-19T11:27:29;27.80;36.70
63017;DHT22;50274;45.640;11.756;2022-09-19T11:30:23;27.70;35.40
63017;DHT22;50274;45.640;11.756;2022-09-19T11:33:15;27.60;35.20
63017;DHT22;50274;45.640;11.756;2022-09-19T11:35:51;27.60;34.60
63017;DHT22;50274;45.640;11.756;2022-09-19T11:38:54;27.50;35.10
63017;DHT22;50274;45.640;11.756;2022-09-19T11:41:32;27.50;35.30
63017;DHT22;50274;45.640;11.756;2022-09-19T11:44:25;27.60;36.10
63017;DHT22;50274;45.640;11.756;2022-09-19T11:52:32;27.70;35.30
63017;DHT22;50274;45.640;11.756;2022-09-19T11:55:33;27.80;35.40
63017;DHT22;50274;45.640;11.756;2022-09-19T11:58:20;27.80;34.50
63017;DHT22;50274;45.640;11.756;2022-09-19T12:03:49;28.10;34.60
63017;DHT22;50274;45.640;11.756;2022-09-19T12:11:44;28.30;32.90
63017;DHT22;50274;45.640;11.756;2022-09-19T12:17:26;28.80;32.40
63017;DHT22;50274;45.640;11.756;2022-09-19T12:20:15;29.10;32.00
63017;DHT22;50274;45.640;11.756;2022-09-19T12:22:54;29.20;31.00
63017;DHT22;50274;45.640;11.756;2022-09-19T12:25:23;29.10;30.90
63017;DHT22;50274;45.640;11.756;2022-09-19T12:30:31;29.30;31.60
63017;DHT22;50274;45.640;11.756;2022-09-19T12:35:52;29.60;31.20
63017;DHT22;50274;45.640;11.756;2022-09-19T12:38:35;29.60;29.80
63017;DHT22;50274;45.640;11.756;2022-09-19T12:41:46;29.60;29.50
63017;DHT22;50274;45.640;11.756;2022-09-19T12:46:58;29.50;28.90
63017;DHT22;50274;45.640;11.756;2022-09-19T12:52:38;29.80;29.60
63017;DHT22;50274;45.640;11.756;2022-09-19T12:55:21;30.00;29.60
63017;DHT22;50274;45.640;11.756;2022-09-19T12:57:55;30.10;28.60
63017;DHT22;50274;45.640;11.756;2022-09-19T13:00:22;30.10;28.40
63017;DHT22;50274;45.640;11.756;2022-09-19T13:03:14;30.00;28.40
63017;DHT22;50274;45.640;11.756;2022-09-19T13:06:36;29.80;27.90
63017;DHT22;50274;45.640;11.756;2022-09-19T13:09:10;29.90;28.70
63017;DHT22;50274;45.640;11.756;2022-09-19T13:11:44;29.90;27.90
63017;DHT22;50274;45.640;11.756;2022-09-19T13:16:47;30.00;27.80
63017;DHT22;50274;45.640;11.756;2022-09-19T13:19:37;29.90;25.90
63017;DHT22;50274;45.640;11.756;2022-09-19T13:22:23;29.90;26.50
63017;DHT22;50274;45.640;11.756;2022-09-19T13:25:19;29.90;26.30
63017;DHT22;50274;45.640;11.756;2022-09-19T13:31:07;30.10;27.00
63017;DHT22;50274;45.640;11.756;2022-09-19T13:33:46;30.00;26.80
63017;DHT22;50274;45.640;11.756;2022-09-19T13:36:37;29.90;26.80
63017;DHT22;50274;45.640;11.756;2022-09-19T13:39:04;29.80;26.40
63017;DHT22;50274;45.640;11.756;2022-09-19T13:41:52;29.80;26.30
63017;DHT22;50274;45.640;11.756;2022-09-19T13:47:22;29.70;26.40
63017;DHT22;50274;45.640;11.756;2022-09-19T13:50:06;29.70;26.70
63017;DHT22;50274;45.640;11.756;2022-09-19T13:52:40;29.70;25.70
63017;DHT22;50274;45.640;11.756;2022-09-19T13:57:41;29.80;25.60
63017;DHT22;50274;45.640;11.756;2022-09-19T14:03:05;30.00;25.40
63017;DHT22;50274;45.640;11.756;2022-09-19T14:05:36;30.00;25.20
63017;DHT22;50274;45.640;11.756;2022-09-19T14:08:05;30.00;24.80
63017;DHT22;50274;45.640;11.756;2022-09-19T14:18:46;30.10;25.20
63017;DHT22;50274;45.640;11.756;2022-09-19T14:24:15;30.10;24.50
63017;DHT22;50274;45.640;11.756;2022-09-19T14:30:05;30.10;24.70
63017;DHT22;50274;45.640;11.756;2022-09-19T14:32:41;30.00;23.50
63017;DHT22;50274;45.640;11.756;2022-09-19T14:35:42;29.80;23.50
63017;DHT22;50274;45.640;11.756;2022-09-19T14:41:10;29.60;23.60
63017;DHT22;50274;45.640;11.756;2022-09-19T14:46:42;29.50;23.60
63017;DHT22;50274;45.640;11.756;2022-09-19T14:49:23;29.50;24.00
63017;DHT22;50274;45.640;11.756;2022-09-19T14:52:12;29.40;23.70
63017;DHT22;50274;45.640;11.756;2022-09-19T14:54:54;29.30;24.10
63017;DHT22;50274;45.640;11.756;2022-09-19T14:57:22;29.20;24.50
63017;DHT22;50274;45.640;11.756;2022-09-19T14:59:49;29.10;24.30
63017;DHT22;50274;45.640;11.756;2022-09-19T15:05:37;28.90;24.80
63017;DHT22;50274;45.640;11.756;2022-09-19T15:07:38;28.80;25.70
63017;DHT22;50274;45.640;11.756;2022-09-19T15:15:43;28.40;26.70
63017;DHT22;50274;45.640;11.756;2022-09-19T15:20:56;28.20;26.70
63017;DHT22;50274;45.640;11.756;2022-09-19T15:23:25;28.10;26.70
63017;DHT22;50274;45.640;11.756;2022-09-19T15:25:59;27.90;26.70
63017;DHT22;50274;45.640;11.756;2022-09-19T15:28:31;27.90;27.00
63017;DHT22;50274;45.640;11.756;2022-09-19T15:31:04;27.70;27.40
63017;DHT22;50274;45.640;11.756;2022-09-19T15:33:35;27.60;27.70
63017;DHT22;50274;45.640;11.756;2022-09-19T15:36:03;27.50;27.30
63017;DHT22;50274;45.640;11.756;2022-09-19T15:38:46;27.40;27.40
63017;DHT22;50274;45.640;11.756;2022-09-19T15:41:32;27.20;27.20
63017;DHT22;50274;45.640;11.756;2022-09-19T15:44:29;27.10;27.20
63017;DHT22;50274;45.640;11.756;2022-09-19T15:47:19;26.90;28.00
63017;DHT22;50274;45.640;11.756;2022-09-19T15:50:01;26.80;28.60
63017;DHT22;50274;45.640;11.756;2022-09-19T15:52:35;26.70;28.60
63017;DHT22;50274;45.640;11.756;2022-09-19T15:55:23;26.60;28.70
63017;DHT22;50274;45.640;11.756;2022-09-19T15:57:59;26.40;29.20
63017;DHT22;50274;45.640;11.756;2022-09-19T16:00:27;26.30;29.50
63017;DHT22;50274;45.640;11.756;2022-09-19T16:03:04;26.20;30.00
63017;DHT22;50274;45.640;11.756;2022-09-19T16:05:35;26.10;30.30
63017;DHT22;50274;45.640;11.756;2022-09-19T16:08:21;26.10;30.60
63017;DHT22;50274;45.640;11.756;2022-09-19T16:13:53;25.90;31.00
63017;DHT22;50274;45.640;11.756;2022-09-19T16:16:34;25.80;31.10
63017;DHT22;50274;45.640;11.756;2022-09-19T16:19:00;25.80;31.50
63017;DHT22;50274;45.640;11.756;2022-09-19T16:24:13;25.70;31.90
63017;DHT22;50274;45.640;11.756;2022-09-19T16:26:40;25.60;32.00
63017;DHT22;50274;45.640;11.756;2022-09-19T16:29:10;25.40;32.40
63017;DHT22;50274;45.640;11.756;2022-09-19T16:31:38;25.40;32.80
63017;DHT22;50274;45.640;11.756;2022-09-19T16:36:39;25.30;34.90
63017;DHT22;50274;45.640;11.756;2022-09-19T16:39:21;25.20;34.20
63017;DHT22;50274;45.640;11.756;2022-09-19T16:46:49;24.90;35.40
63017;DHT22;50274;45.640;11.756;2022-09-19T16:49:19;24.80;35.80
63017;DHT22;50274;45.640;11.756;2022-09-19T16:51:44;24.70;36.00
63017;DHT22;50274;45.640;11.756;2022-09-19T16:54:16;24.60;36.20
63017;DHT22;50274;45.640;11.756;2022-09-19T16:56:42;24.50;36.60
63017;DHT22;50274;45.640;11.756;2022-09-19T16:59:13;24.50;37.10
63017;DHT22;50274;45.640;11.756;2022-09-19T17:01:40;24.30;37.20
63017;DHT22;50274;45.640;11.756;2022-09-19T17:04:14;24.30;37.50
63017;DHT22;50274;45.640;11.756;2022-09-19T17:06:42;24.20;37.70
63017;DHT22;50274;45.640;11.756;2022-09-19T17:09:08;24.20;38.00
63017;DHT22;50274;45.640;11.756;2022-09-19T17:11:33;24.10;38.30
63017;DHT22;50274;45.640;11.756;2022-09-19T17:13:59;24.00;38.50
63017;DHT22;50274;45.640;11.756;2022-09-19T17:16:26;24.00;38.50
63017;DHT22;50274;45.640;11.756;2022-09-19T17:18:51;23.90;38.60
63017;DHT22;50274;45.640;11.756;2022-09-19T17:21:17;23.80;38.80
63017;DHT22;50274;45.640;11.756;2022-09-19T17:23:46;23.70;39.00
63017;DHT22;50274;45.640;11.756;2022-09-19T17:26:12;23.70;39.10
63017;DHT22;50274;45.640;11.756;2022-09-19T17:28:40;23.60;39.30
63017;DHT22;50274;45.640;11.756;2022-09-19T17:31:09;23.60;39.50
63017;DHT22;50274;45.640;11.756;2022-09-19T17:33:36;23.50;39.70
63017;DHT22;50274;45.640;11.756;2022-09-19T17:36:02;23.50;39.90
63017;DHT22;50274;45.640;11.756;2022-09-19T17:38:30;23.40;40.00
63017;DHT22;50274;45.640;11.756;2022-09-19T17:40:57;23.40;40.10
63017;DHT22;50274;45.640;11.756;2022-09-19T17:43:25;23.30;40.20
63017;DHT22;50274;45.640;11.756;2022-09-19T17:46:00;23.20;40.30
63017;DHT22;50274;45.640;11.756;2022-09-19T17:48:29;23.10;40.60
63017;DHT22;50274;45.640;11.756;2022-09-19T17:50:56;23.10;40.70
63017;DHT22;50274;45.640;11.756;2022-09-19T17:53:22;23.10;40.80
63017;DHT22;50274;45.640;11.756;2022-09-19T17:55:48;23.00;41.00
63017;DHT22;50274;45.640;11.756;2022-09-19T17:58:14;22.90;41.00
63017;DHT22;50274;45.640;11.756;2022-09-19T18:00:40;22.80;41.10
63017;DHT22;50274;45.640;11.756;2022-09-19T18:03:06;22.80;41.10
63017;DHT22;50274;45.640;11.756;2022-09-19T18:05:57;22.70;41.10
63017;DHT22;50274;45.640;11.756;2022-09-19T18:08:27;22.60;41.30
63017;DHT22;50274;45.640;11.756;2022-09-19T18:11:04;22.60;41.30
63017;DHT22;50274;45.640;11.756;2022-09-19T18:13:31;22.50;41.40
63017;DHT22;50274;45.640;11.756;2022-09-19T18:16:03;22.40;41.60
63017;DHT22;50274;45.640;11.756;2022-09-19T18:18:29;22.40;41.70
63017;DHT22;50274;45.640;11.756;2022-09-19T18:20:56;22.20;41.90
63017;DHT22;50274;45.640;11.756;2022-09-19T18:23:24;22.10;42.20
63017;DHT22;50274;45.640;11.756;2022-09-19T18:25:55;22.10;42.40
63017;DHT22;50274;45.640;11.756;2022-09-19T18:28:27;22.00;42.60
63017;DHT22;50274;45.640;11.756;2022-09-19T18:30:54;21.90;42.90
63017;DHT22;50274;45.640;11.756;2022-09-19T18:33:22;21.80;43.10
63017;DHT22;50274;45.640;11.756;2022-09-19T18:35:51;21.80;43.20
63017;DHT22;50274;45.640;11.756;2022-09-19T18:38:18;21.70;43.20
63017;DHT22;50274;45.640;11.756;2022-09-19T18:40:44;21.60;43.20
63017;DHT22;50274;45.640;11.756;2022-09-19T18:43:10;21.50;43.40
63017;DHT22;50274;45.640;11.756;2022-09-19T18:45:36;21.40;43.60
63017;DHT22;50274;45.640;11.756;2022-09-19T18:48:02;21.40;43.70